createdAt,value
2023-01-30T00:03:14.866Z,32.2
2023-01-30T00:08:13.859Z,32.2
2023-01-30T00:13:13.877Z,32.2
2023-01-30T00:18:13.887Z,32.2
2023-01-30T00:23:13.908Z,32.2
2023-01-30T00:28:13.914Z,32.8
2023-01-30T00:33:13.944Z,31.2
2023-01-30T00:38:13.866Z,32.8
2023-01-30T00:43:13.984Z,33.9
2023-01-30T00:48:13.855Z,33.9
2023-01-30T00:53:13.853Z,33.9
2023-01-30T00:58:13.924Z,33.5
2023-01-30T01:03:13.893Z,32.7
2023-01-30T01:08:13.869Z,33.5
2023-01-30T01:13:13.981Z,32.7
2023-01-30T01:18:14.623Z,32.1
2023-01-30T01:23:14.045Z,32.7
2023-01-30T01:28:13.940Z,32.1
2023-01-30T01:33:13.903Z,31.9
2023-01-30T01:38:14.150Z,31.9
2023-01-30T01:43:13.883Z,28.1
2023-01-30T01:48:14.190Z,28.1
2023-01-30T01:53:13.875Z,27.5
2023-01-30T01:58:13.947Z,27.2
2023-01-30T02:03:13.870Z,27.2
2023-01-30T02:08:13.886Z,26.6
2023-01-30T02:13:13.934Z,26.5
2023-01-30T02:18:14.339Z,26.5
2023-01-30T02:23:13.890Z,25.8
2023-01-30T02:28:13.881Z,25.8
2023-01-30T02:33:13.986Z,25.2
2023-01-30T02:38:13.878Z,25.2
2023-01-30T02:43:13.933Z,25.2
2023-01-30T02:48:14.125Z,25.2
2023-01-30T02:53:13.902Z,25.1
2023-01-30T02:58:13.905Z,26.2
2023-01-30T03:03:13.871Z,25.1
2023-01-30T03:08:13.865Z,25.1
2023-01-30T03:13:14.237Z,24.9
2023-01-30T03:18:15.983Z,24.9
2023-01-30T03:23:13.891Z,22.2
2023-01-30T03:28:13.933Z,22.2
2023-01-30T03:33:13.914Z,21.7
2023-01-30T03:38:13.900Z,21.6
2023-01-30T03:43:13.966Z,21.6
2023-01-30T03:48:14.235Z,21.5
2023-01-30T03:53:14.057Z,21.5
2023-01-30T03:58:13.995Z,21.1
2023-01-30T04:03:13.897Z,20.5
2023-01-30T04:08:13.906Z,20.5
2023-01-30T04:13:21.676Z,19.5
2023-01-30T04:18:13.913Z,19.2
2023-01-30T04:23:13.896Z,18.7
2023-01-30T04:28:13.913Z,17.7
2023-01-30T04:33:13.894Z,17.6
2023-01-30T04:38:13.894Z,17.6
2023-01-30T04:43:13.943Z,17.6
2023-01-30T04:48:13.904Z,17.6
2023-01-30T04:53:13.933Z,17.6
2023-01-30T04:58:13.892Z,17.6
2023-01-30T05:03:14.390Z,17.6
2023-01-30T05:08:13.943Z,17.6
2023-01-30T05:13:14.428Z,17.6
2023-01-30T05:18:13.912Z,18.5
2023-01-30T05:23:13.949Z,18.7
2023-01-30T05:28:13.936Z,20.2
2023-01-30T05:33:13.930Z,21.8
2023-01-30T05:38:14.017Z,22.2
2023-01-30T05:43:14.055Z,22.4
2023-01-30T05:48:13.956Z,23.4
2023-01-30T05:53:13.988Z,23.5
2023-01-30T05:58:14.411Z,23.5
2023-01-30T06:03:13.906Z,23.5
2023-01-30T06:08:13.950Z,23.7
2023-01-30T06:13:14.042Z,23.7
2023-01-30T06:18:13.913Z,22.9
2023-01-30T06:23:13.953Z,22.5
2023-01-30T06:28:13.942Z,22.3
2023-01-30T06:33:13.942Z,21.6
2023-01-30T06:38:14.128Z,21.6
2023-01-30T06:43:13.925Z,20.6
2023-01-30T06:48:13.979Z,20.7
2023-01-30T06:53:13.973Z,20.2
2023-01-30T06:58:14.025Z,18.9
2023-01-30T07:03:13.953Z,18.2
2023-01-30T07:08:13.938Z,18.2
2023-01-30T07:13:13.980Z,18.2
2023-01-30T07:18:13.996Z,17.5
2023-01-30T07:23:13.910Z,17.2
2023-01-30T07:28:13.954Z,17.1
2023-01-30T07:33:14.178Z,17
2023-01-30T07:38:13.918Z,16.7
2023-01-30T07:43:14.007Z,16.1
2023-01-30T07:48:13.938Z,16.1
2023-01-30T07:53:14.457Z,15.2
2023-01-30T07:58:13.934Z,14.7
2023-01-30T08:03:13.987Z,14.7
2023-01-30T08:08:13.995Z,13.9
2023-01-30T08:13:13.965Z,12.7
2023-01-30T08:18:13.980Z,12.7
2023-01-30T08:23:13.952Z,12.7
2023-01-30T08:28:13.943Z,11.9
2023-01-30T08:33:13.951Z,11.9
2023-01-30T08:38:13.948Z,11.9
2023-01-30T08:43:13.953Z,11.9
2023-01-30T08:48:14.023Z,11.8
2023-01-30T08:53:13.953Z,11.4
2023-01-30T08:58:13.963Z,11.4
2023-01-30T09:03:14.439Z,11.5
2023-01-30T09:08:14.012Z,11.8
2023-01-30T09:13:14.013Z,11.8
2023-01-30T09:18:13.995Z,12.2
2023-01-30T09:23:16.967Z,12.2
2023-01-30T09:28:13.961Z,12.2
2023-01-30T09:33:13.942Z,12.7
2023-01-30T09:38:14.001Z,13.2
2023-01-30T09:43:13.942Z,13.3
2023-01-30T09:48:17.831Z,13.3
2023-01-30T09:53:14.003Z,13.6
2023-01-30T09:58:13.978Z,13.8
2023-01-30T10:03:14.075Z,13.8
2023-01-30T10:08:14.041Z,13.8
2023-01-30T10:13:14.107Z,13.7
2023-01-30T10:18:14.062Z,13.6
2023-01-30T10:28:14.055Z,8.7
2023-01-30T10:33:14.052Z,8.7
2023-01-30T10:38:13.987Z,8.7
2023-01-30T10:43:13.965Z,8.2
2023-01-30T10:48:14.377Z,8.7
2023-01-30T10:53:13.973Z,8.35
2023-01-30T10:58:13.976Z,8
2023-01-30T11:03:14.081Z,7.7
2023-01-30T11:08:13.979Z,7.7
2023-01-30T11:13:14.044Z,7.4
2023-01-30T11:18:50.841Z,7.1
2023-01-30T11:23:15.171Z,6.9
2023-01-30T11:28:13.975Z,6.9
2023-01-30T11:33:14.133Z,6.7
2023-01-30T11:38:14.081Z,6.7
2023-01-30T11:43:14.021Z,6.4
2023-01-30T11:48:27.926Z,6.4
2023-01-30T11:53:14.969Z,6.1
2023-01-30T11:58:14.023Z,6.1
2023-01-30T12:03:14.075Z,6.4
2023-01-30T12:08:14.054Z,6.4
2023-01-30T12:13:13.998Z,6.4
2023-01-30T12:18:15.449Z,6.5
2023-01-30T12:23:15.735Z,6.5
2023-01-30T12:28:14.038Z,6.6
2023-01-30T12:33:14.028Z,6.9
2023-01-30T12:38:14.058Z,6.6
2023-01-30T12:43:14.130Z,6.9
2023-01-30T12:48:14.228Z,6.9
2023-01-30T12:53:14.068Z,6.9
2023-01-30T12:58:14.026Z,6.9
2023-01-30T13:03:14.036Z,6.8
2023-01-30T13:08:14.086Z,6.8
2023-01-30T13:13:14.084Z,6.8
2023-01-30T13:18:14.422Z,6.8
2023-01-30T13:23:14.674Z,6.8
2023-01-30T13:28:14.564Z,6.9
2023-01-30T13:33:14.009Z,7.3
2023-01-30T13:38:14.034Z,7.8
2023-01-30T13:43:14.153Z,7.8
2023-01-30T13:48:14.018Z,7.8
2023-01-30T13:53:14.335Z,7.8
2023-01-30T13:58:14.024Z,7.8
2023-01-30T14:03:14.007Z,7.1
2023-01-30T14:08:14.028Z,7
2023-01-30T14:13:14.049Z,7
2023-01-30T14:18:14.024Z,7
2023-01-30T14:23:17.285Z,7.1
2023-01-30T14:28:14.272Z,7.1
2023-01-30T14:33:14.038Z,8.9
2023-01-30T14:38:14.149Z,8.9
2023-01-30T14:43:14.089Z,8.9
2023-01-30T14:48:14.132Z,8.9
2023-01-30T14:53:14.055Z,9
2023-01-30T14:58:14.107Z,8.9
2023-01-30T15:03:14.058Z,8.6
2023-01-30T15:08:14.125Z,8.5
2023-01-30T15:13:14.089Z,7.8
2023-01-30T15:18:14.212Z,7.8
2023-01-30T15:23:15.316Z,6.5
2023-01-30T15:28:14.039Z,6.5
2023-01-30T15:33:22.750Z,6.5
2023-01-30T15:38:14.141Z,6.5
2023-01-30T15:43:14.153Z,6.5
2023-01-30T15:48:14.020Z,6.5
2023-01-30T15:53:14.001Z,6.8
2023-01-30T15:58:14.027Z,7
2023-01-30T16:03:14.006Z,7
2023-01-30T16:08:14.083Z,7.9
2023-01-30T16:13:14.029Z,9.8
2023-01-30T16:18:14.010Z,9.9
2023-01-30T16:40:41.381Z,14.55
2023-01-30T16:45:41.250Z,15
2023-01-30T16:50:49.570Z,14.55
2023-01-30T16:55:41.395Z,15
2023-01-30T17:00:41.125Z,14.55
2023-01-30T17:05:41.543Z,14.6
2023-01-30T17:10:41.240Z,14.1
2023-01-30T17:15:41.228Z,14.6
2023-01-30T17:20:43.609Z,14.5
2023-01-30T17:25:41.144Z,14.5
2023-01-30T17:30:42.093Z,14.1
2023-01-30T17:35:45.809Z,14.1
2023-01-30T17:40:41.109Z,13.5
2023-01-30T17:45:41.120Z,14.1
2023-01-30T17:50:41.155Z,13
2023-01-30T17:55:41.135Z,13
2023-01-30T18:00:41.103Z,14.1
2023-01-30T18:05:46.371Z,12.7
2023-01-30T18:10:41.124Z,14.7
2023-01-30T18:15:41.131Z,14.7
2023-01-30T18:20:43.422Z,14.2
2023-01-30T18:25:41.144Z,14.2
2023-01-30T18:30:41.152Z,14.2
2023-01-30T18:35:43.176Z,13.7
2023-01-30T18:40:41.431Z,14.2
2023-01-30T18:45:41.096Z,14.2
2023-01-30T18:50:43.567Z,14.7
2023-01-30T18:55:41.105Z,15.2
2023-01-30T19:00:41.062Z,15.2
2023-01-30T19:05:43.399Z,15.2
2023-01-30T19:10:41.150Z,15.2
2023-01-30T19:15:41.155Z,14
2023-01-30T19:20:41.336Z,14
2023-01-30T19:25:41.167Z,14
2023-01-30T19:30:41.236Z,13.5
2023-01-30T19:35:49.230Z,14
2023-01-30T19:40:41.317Z,14.8
2023-01-30T19:45:41.064Z,15.5
2023-01-30T19:50:41.207Z,16.3
2023-01-30T19:55:41.144Z,16.3
2023-01-30T20:00:41.079Z,16.3
2023-01-30T20:05:43.599Z,16.8
2023-01-30T20:10:41.254Z,16.9
2023-01-30T20:15:41.163Z,17.4
2023-01-30T20:20:43.933Z,18
2023-01-30T20:25:41.200Z,18.1
2023-01-30T20:30:41.190Z,18.4
2023-01-30T20:35:47.797Z,18.8
2023-01-30T20:40:41.149Z,19.9
2023-01-30T20:45:41.180Z,18.8
2023-01-30T20:50:44.871Z,19.9
2023-01-30T20:55:41.177Z,18.8
2023-01-30T21:00:41.121Z,19.3
2023-01-30T21:05:43.962Z,22.1
2023-01-30T21:10:41.168Z,21.9
2023-01-30T21:15:41.135Z,19.7
2023-01-30T21:20:45.109Z,19.8
2023-01-30T21:25:41.129Z,19.7
2023-01-30T21:30:41.152Z,19.7
2023-01-30T21:35:43.622Z,19.7
2023-01-30T21:40:41.185Z,18.9
2023-01-30T21:45:41.105Z,18.9
2023-01-30T21:50:45.231Z,17.7
2023-01-30T21:55:41.211Z,17.7
2023-01-30T22:00:41.097Z,17.7
2023-01-30T22:05:43.685Z,17.5
2023-01-30T22:10:41.099Z,17.7
2023-01-30T22:15:41.176Z,17.1
2023-01-30T22:20:41.874Z,17
2023-01-30T22:25:41.118Z,17.1
2023-01-30T22:30:41.106Z,17
2023-01-30T22:35:43.915Z,17
2023-01-30T22:40:41.188Z,17
2023-01-30T22:45:41.069Z,16.7
2023-01-30T22:50:45.237Z,17
2023-01-30T22:55:41.209Z,18.9
2023-01-30T23:00:41.102Z,16.6
2023-01-30T23:05:44.055Z,18.9
2023-01-30T23:10:41.190Z,18.9
2023-01-30T23:15:41.092Z,18.9
2023-01-30T23:20:47.155Z,18.9
2023-01-30T23:25:41.283Z,18.4
2023-01-30T23:30:41.228Z,18.4
2023-01-30T23:35:45.041Z,18.4
2023-01-30T23:40:41.707Z,18.4
2023-01-30T23:45:41.285Z,18
2023-01-30T23:50:44.576Z,18
2023-01-30T23:55:41.159Z,17.4
